createdAt,value
2023-08-29T00:01:15.858Z,20.48
2023-08-29T00:04:22.715Z,21.30
2023-08-29T00:07:29.385Z,22.35
2023-08-29T00:10:36.463Z,22.00
2023-08-29T00:13:42.614Z,21.40
2023-08-29T00:16:48.053Z,21.42
2023-08-29T00:19:53.398Z,21.37
2023-08-29T00:22:59.565Z,20.85
2023-08-29T00:26:07.121Z,22.07
2023-08-29T00:29:11.909Z,21.30
2023-08-29T00:32:19.593Z,21.52
2023-08-29T00:35:25.661Z,22.48
2023-08-29T00:38:33.772Z,21.33
2023-08-29T00:41:40.030Z,21.30
2023-08-29T00:44:47.320Z,22.30
2023-08-29T00:47:54.452Z,22.48
2023-08-29T00:51:01.128Z,22.40
2023-08-29T00:54:08.573Z,22.07
2023-08-29T00:57:14.542Z,22.35
2023-08-29T01:00:22.115Z,22.52
2023-08-29T01:03:30.219Z,21.57
2023-08-29T01:06:36.705Z,23.18
2023-08-29T01:09:41.962Z,22.25
2023-08-29T01:13:06.127Z,24.95
2023-08-29T01:16:13.705Z,24.10
2023-08-29T01:19:25.237Z,24.25
2023-08-29T01:23:12.271Z,24.18
2023-08-29T01:26:30.236Z,23.07
2023-08-29T01:29:36.460Z,24.23
2023-08-29T01:32:42.713Z,23.75
2023-08-29T01:35:51.564Z,23.47
2023-08-29T01:38:58.639Z,24.32
2023-08-29T01:42:05.639Z,25.35
2023-08-29T01:45:11.649Z,22.95
2023-08-29T01:48:18.068Z,25.43
2023-08-29T01:51:25.351Z,24.45
2023-08-29T01:54:32.423Z,25.08
2023-08-29T01:57:39.653Z,24.95
2023-08-29T02:00:47.576Z,25.27
2023-08-29T02:03:53.136Z,24.75
2023-08-29T02:07:00.354Z,25.45
2023-08-29T02:10:05.482Z,24.72
2023-08-29T02:13:10.738Z,24.60
2023-08-29T02:16:19.468Z,24.00
2023-08-29T02:19:25.425Z,24.15
2023-08-29T02:22:31.597Z,24.37
2023-08-29T02:25:37.757Z,24.37
2023-08-29T02:28:45.040Z,24.32
2023-08-29T02:31:50.902Z,24.35
2023-08-29T02:34:57.586Z,24.05
2023-08-29T02:38:07.062Z,25.40
2023-08-29T02:41:12.357Z,25.35
2023-08-29T02:44:18.214Z,25.50
2023-08-29T02:47:24.810Z,25.90
2023-08-29T02:50:30.184Z,24.55
2023-08-29T02:53:38.339Z,24.70
2023-08-29T02:56:44.292Z,25.68
2023-08-29T02:59:49.259Z,23.98
2023-08-29T03:02:55.750Z,25.92
2023-08-29T03:06:12.697Z,25.23
2023-08-29T03:09:18.995Z,23.57
2023-08-29T03:12:25.827Z,23.65
2023-08-29T03:15:31.280Z,23.92
2023-08-29T03:18:38.413Z,22.65
2023-08-29T03:21:44.268Z,24.07
2023-08-29T03:24:50.212Z,23.73
2023-08-29T03:27:58.087Z,25.68
2023-08-29T03:31:03.782Z,26.73
2023-08-29T03:34:10.712Z,26.37
2023-08-29T03:37:16.912Z,26.42
2023-08-29T03:40:25.628Z,25.95
2023-08-29T03:43:33.155Z,25.68
2023-08-29T03:46:41.694Z,26.20
2023-08-29T03:49:49.880Z,25.40
2023-08-29T03:52:55.532Z,26.97
2023-08-29T03:56:00.782Z,25.10
2023-08-29T03:59:08.569Z,26.00
2023-08-29T04:02:16.556Z,25.65
2023-08-29T04:05:28.179Z,25.48
2023-08-29T04:08:34.434Z,24.12
2023-08-29T04:11:39.669Z,25.37
2023-08-29T04:14:44.724Z,25.43
2023-08-29T04:17:50.503Z,24.27
2023-08-29T04:20:50.715Z,24.75
2023-08-29T04:23:43.556Z,26.05
2023-08-29T04:26:48.279Z,25.72
2023-08-29T04:29:54.750Z,25.75
2023-08-29T04:33:01.101Z,25.43
2023-08-29T04:36:07.887Z,25.68
2023-08-29T04:39:14.464Z,24.10
2023-08-29T04:42:23.538Z,26.48
2023-08-29T04:45:28.958Z,25.15
2023-08-29T04:48:33.708Z,25.90
2023-08-29T04:51:39.335Z,26.27
2023-08-29T04:54:45.171Z,25.43
2023-08-29T04:57:50.301Z,25.72
2023-08-29T05:00:56.567Z,26.10
2023-08-29T05:04:03.196Z,25.68
2023-08-29T05:07:08.057Z,25.82
2023-08-29T05:10:13.191Z,25.70
2023-08-29T05:13:19.563Z,26.48
2023-08-29T05:16:25.352Z,25.75
2023-08-29T05:19:31.625Z,24.67
2023-08-29T05:22:37.528Z,25.80
2023-08-29T05:25:43.448Z,24.60
2023-08-29T05:28:49.926Z,25.17
2023-08-29T05:31:55.820Z,24.05
2023-08-29T05:35:01.424Z,24.95
2023-08-29T05:38:07.850Z,25.10
2023-08-29T05:41:14.090Z,23.22
2023-08-29T05:44:20.610Z,23.50
2023-08-29T05:47:25.713Z,22.10
2023-08-29T05:50:30.646Z,22.73
2023-08-29T05:53:35.880Z,24.35
2023-08-29T05:56:41.327Z,22.70
2023-08-29T05:59:48.579Z,22.20
2023-08-29T06:02:55.949Z,22.02
2023-08-29T06:06:07.079Z,21.60
2023-08-29T06:09:14.631Z,21.35
2023-08-29T06:12:39.266Z,21.48
2023-08-29T06:15:45.088Z,21.23
2023-08-29T06:18:51.178Z,20.57
2023-08-29T06:21:57.164Z,20.60
2023-08-29T06:25:02.622Z,20.10
2023-08-29T06:28:08.953Z,22.27
2023-08-29T06:31:22.590Z,20.50
2023-08-29T06:34:28.767Z,20.60
2023-08-29T06:37:35.311Z,20.17
2023-08-29T06:40:41.917Z,27.87
2023-08-29T06:43:48.625Z,22.37
2023-08-29T06:46:54.605Z,20.82
2023-08-29T06:50:01.045Z,22.73
2023-08-29T06:53:25.192Z,22.37
2023-08-29T06:56:31.407Z,19.10
2023-08-29T06:59:37.098Z,18.48
2023-08-29T07:02:42.350Z,17.42
2023-08-29T07:05:49.950Z,17.82
2023-08-29T07:09:13.840Z,18.32
2023-08-29T07:12:37.116Z,17.30
2023-08-29T07:15:42.142Z,18.32
2023-08-29T07:18:47.947Z,18.10
2023-08-29T07:21:56.233Z,17.80
2023-08-29T07:25:03.824Z,17.27
2023-08-29T07:28:09.650Z,16.65
2023-08-29T07:31:34.159Z,16.73
2023-08-29T07:34:58.016Z,16.60
2023-08-29T07:38:05.818Z,16.48
2023-08-29T07:41:13.964Z,15.90
2023-08-29T07:44:20.926Z,16.90
2023-08-29T07:47:26.283Z,15.43
2023-08-29T07:50:31.975Z,16.07
2023-08-29T07:53:39.817Z,16.97
2023-08-29T07:56:48.739Z,16.35
2023-08-29T07:59:54.729Z,15.93
2023-08-29T08:03:03.578Z,15.13
2023-08-29T08:06:09.613Z,15.00
2023-08-29T08:09:17.333Z,14.55
2023-08-29T08:12:22.818Z,16.10
2023-08-29T08:15:30.041Z,16.90
2023-08-29T08:18:35.724Z,15.18
2023-08-29T08:21:43.578Z,14.83
2023-08-29T08:24:49.105Z,14.65
2023-08-29T08:27:58.278Z,16.80
2023-08-29T08:31:04.264Z,15.20
2023-08-29T08:34:11.449Z,14.47
2023-08-29T08:37:18.059Z,15.25
2023-08-29T08:40:26.362Z,14.90
2023-08-29T08:43:31.775Z,19.52
2023-08-29T08:46:54.860Z,15.70
2023-08-29T08:50:18.600Z,14.73
2023-08-29T08:53:42.415Z,14.78
2023-08-29T08:56:47.736Z,14.33
2023-08-29T08:59:54.803Z,14.53
2023-08-29T09:03:00.075Z,13.55
2023-08-29T09:06:12.147Z,12.35
2023-08-29T09:09:37.472Z,12.47
2023-08-29T09:12:42.971Z,10.95
2023-08-29T09:15:50.701Z,12.25
2023-08-29T09:19:00.175Z,12.37
2023-08-29T09:22:06.583Z,14.80
2023-08-29T09:25:20.211Z,13.45
2023-08-29T09:28:27.257Z,11.40
2023-08-29T09:31:32.629Z,11.40
2023-08-29T09:34:46.495Z,11.38
2023-08-29T09:38:01.200Z,12.05
2023-08-29T09:41:07.157Z,11.12
2023-08-29T09:44:12.489Z,11.00
2023-08-29T09:47:24.322Z,11.90
2023-08-29T09:50:32.569Z,11.45
2023-08-29T09:53:38.026Z,12.25
2023-08-29T09:56:43.778Z,12.35
2023-08-29T09:59:50.781Z,11.15
2023-08-29T10:02:58.893Z,11.15
2023-08-29T10:06:05.498Z,11.20
2023-08-29T10:09:13.847Z,11.05
2023-08-29T10:12:18.702Z,12.03
2023-08-29T10:19:34.945Z,11.45
2023-08-29T10:22:43.936Z,11.28
2023-08-29T10:25:49.018Z,10.63
2023-08-29T10:28:54.361Z,10.50
2023-08-29T10:32:00.641Z,10.85
2023-08-29T10:35:00.584Z,11.40
2023-08-29T10:37:53.371Z,10.50
2023-08-29T10:40:59.316Z,10.68
2023-08-29T10:44:05.897Z,10.03
2023-08-29T10:47:31.950Z,10.63
2023-08-29T10:50:38.874Z,10.63
2023-08-29T10:53:44.774Z,10.03
2023-08-29T10:57:00.661Z,9.80
2023-08-29T11:00:07.323Z,9.85
2023-08-29T11:03:14.349Z,9.68
2023-08-29T11:06:20.777Z,9.93
2023-08-29T11:09:38.031Z,9.13
2023-08-29T11:12:43.482Z,20.20
2023-08-29T11:16:11.000Z,9.55
2023-08-29T11:19:22.554Z,9.58
2023-08-29T11:22:31.177Z,9.40
2023-08-29T11:25:38.672Z,9.40
2023-08-29T11:28:45.360Z,8.15
2023-08-29T11:31:56.978Z,9.23
2023-08-29T11:35:07.497Z,9.57
2023-08-29T11:38:15.416Z,9.20
2023-08-29T11:41:35.529Z,8.68
2023-08-29T11:45:01.993Z,8.98
2023-08-29T11:47:42.865Z,9.10
2023-08-29T11:50:51.603Z,9.38
2023-08-29T11:53:56.926Z,9.58
2023-08-29T11:57:04.126Z,8.95
2023-08-29T12:00:12.819Z,9.70
2023-08-29T12:03:19.062Z,9.68
2023-08-29T12:06:28.468Z,9.23
2023-08-29T12:09:39.418Z,9.20
2023-08-29T12:12:48.752Z,10.18
2023-08-29T12:15:55.015Z,9.40
2023-08-29T12:19:01.162Z,9.55
2023-08-29T12:22:10.308Z,9.28
2023-08-29T12:25:14.793Z,10.50
2023-08-29T12:28:22.996Z,9.43
2023-08-29T12:31:29.335Z,9.95
2023-08-29T12:34:35.376Z,9.63
2023-08-29T12:37:40.993Z,10.58
2023-08-29T12:40:47.119Z,9.63
2023-08-29T12:43:53.322Z,9.98
2023-08-29T12:47:00.345Z,10.28
2023-08-29T12:50:08.450Z,9.78
2023-08-29T12:53:14.824Z,9.98
2023-08-29T12:56:21.022Z,10.45
2023-08-29T12:59:25.561Z,9.83
2023-08-29T13:02:31.594Z,10.53
2023-08-29T13:05:37.925Z,10.70
2023-08-29T13:08:45.160Z,10.35
2023-08-29T13:11:51.330Z,10.53
2023-08-29T13:14:58.007Z,10.55
2023-08-29T13:18:02.710Z,10.30
2023-08-29T13:21:08.878Z,9.93
2023-08-29T13:24:15.216Z,10.55
2023-08-29T13:27:20.174Z,9.95
2023-08-29T13:30:27.061Z,10.48
2023-08-29T13:33:32.669Z,10.10
2023-08-29T13:36:40.709Z,21.42
2023-08-29T13:39:48.926Z,10.98
2023-08-29T13:42:55.007Z,9.83
2023-08-29T13:46:00.941Z,10.50
2023-08-29T13:49:07.195Z,10.55
2023-08-29T13:52:16.205Z,10.00
2023-08-29T13:55:22.800Z,9.93
2023-08-29T13:58:27.947Z,10.40
2023-08-29T14:01:33.703Z,10.25
2023-08-29T14:04:40.523Z,10.45
2023-08-29T14:07:46.158Z,10.10
2023-08-29T14:10:51.743Z,10.35
2023-08-29T14:13:57.801Z,10.80
2023-08-29T14:17:03.506Z,10.43
2023-08-29T14:20:10.439Z,11.28
2023-08-29T14:23:15.960Z,11.57
2023-08-29T14:26:26.407Z,11.48
2023-08-29T14:29:33.020Z,10.90
2023-08-29T14:32:37.865Z,10.78
2023-08-29T14:35:46.065Z,10.88
2023-08-29T14:38:52.050Z,10.88
2023-08-29T14:42:00.123Z,10.50
2023-08-29T14:45:07.530Z,11.08
2023-08-29T14:48:13.890Z,10.18
2023-08-29T14:51:23.204Z,12.03
2023-08-29T14:54:28.817Z,11.10
2023-08-29T14:57:34.512Z,10.55
2023-08-29T15:00:42.520Z,11.95
2023-08-29T15:03:48.279Z,11.53
2023-08-29T15:06:54.779Z,12.10
2023-08-29T15:10:01.532Z,11.35
2023-08-29T15:13:08.341Z,12.37
2023-08-29T15:16:19.018Z,11.22
2023-08-29T15:19:25.993Z,11.18
2023-08-29T15:22:33.878Z,12.53
2023-08-29T15:25:41.168Z,12.20
2023-08-29T15:28:47.353Z,11.85
2023-08-29T15:31:54.790Z,11.83
2023-08-29T15:35:01.453Z,12.30
2023-08-29T15:38:06.706Z,11.93
2023-08-29T15:41:13.097Z,13.08
2023-08-29T15:44:18.008Z,13.58
2023-08-29T15:47:23.655Z,13.05
2023-08-29T15:50:29.893Z,12.75
2023-08-29T15:53:35.468Z,13.48
2023-08-29T15:56:43.542Z,13.50
2023-08-29T15:59:50.176Z,13.20
2023-08-29T16:02:57.914Z,13.38
2023-08-29T16:06:05.261Z,13.25
2023-08-29T16:09:11.532Z,12.47
2023-08-29T16:12:19.904Z,12.78
2023-08-29T16:15:26.270Z,12.15
2023-08-29T16:18:33.400Z,13.83
2023-08-29T16:21:39.722Z,14.45
2023-08-29T16:24:46.545Z,14.58
2023-08-29T16:27:52.892Z,14.58
2023-08-29T16:30:58.235Z,15.72
2023-08-29T16:34:03.755Z,16.52
2023-08-29T16:37:09.169Z,18.87
2023-08-29T16:40:15.772Z,18.40
2023-08-29T16:43:21.762Z,18.07
2023-08-29T16:46:26.985Z,16.87
2023-08-29T16:49:33.480Z,17.37
2023-08-29T16:52:38.757Z,17.00
2023-08-29T16:55:46.935Z,16.77
2023-08-29T16:58:52.987Z,17.02
2023-08-29T17:01:58.992Z,16.32
2023-08-29T17:05:07.686Z,15.90
2023-08-29T17:08:13.550Z,14.63
2023-08-29T17:11:20.589Z,14.73
2023-08-29T17:14:29.058Z,14.78
2023-08-29T17:17:35.134Z,14.50
2023-08-29T17:20:40.651Z,14.75
2023-08-29T17:23:46.731Z,14.87
2023-08-29T17:26:53.296Z,15.23
2023-08-29T17:29:59.016Z,15.10
2023-08-29T17:33:06.273Z,15.72
2023-08-29T17:36:14.346Z,15.63
2023-08-29T17:39:22.047Z,15.50
2023-08-29T17:42:27.700Z,16.48
2023-08-29T17:45:33.722Z,16.42
2023-08-29T17:48:40.478Z,16.20
2023-08-29T17:51:46.887Z,16.27
2023-08-29T17:54:52.510Z,15.65
2023-08-29T17:57:58.572Z,17.15
2023-08-29T18:01:04.640Z,15.72
2023-08-29T18:04:15.657Z,15.63
2023-08-29T18:07:22.516Z,15.43
2023-08-29T18:10:31.697Z,15.10
2023-08-29T18:13:38.312Z,15.20
2023-08-29T18:16:44.298Z,18.92
2023-08-29T18:19:53.436Z,17.10
2023-08-29T18:22:59.880Z,15.32
2023-08-29T18:26:14.468Z,14.50
2023-08-29T18:29:19.929Z,15.55
2023-08-29T18:32:25.679Z,15.63
2023-08-29T18:35:31.661Z,15.05
2023-08-29T18:38:39.211Z,15.48
2023-08-29T18:41:45.887Z,15.53
2023-08-29T18:44:55.458Z,15.00
2023-08-29T18:48:04.760Z,14.98
2023-08-29T18:51:10.593Z,15.10
2023-08-29T18:54:16.273Z,16.45
2023-08-29T18:57:24.198Z,15.88
2023-08-29T19:00:32.691Z,14.73
2023-08-29T19:03:39.763Z,15.10
2023-08-29T19:06:48.832Z,14.15
2023-08-29T19:09:55.184Z,14.15
2023-08-29T19:13:02.872Z,14.13
2023-08-29T19:16:11.045Z,14.07
2023-08-29T19:19:17.029Z,15.00
2023-08-29T19:22:24.489Z,14.85
2023-08-29T19:25:30.410Z,14.10
2023-08-29T19:28:38.232Z,14.68
2023-08-29T19:31:43.886Z,13.25
2023-08-29T19:34:50.311Z,13.30
2023-08-29T19:37:56.270Z,13.00
2023-08-29T19:41:01.713Z,13.53
2023-08-29T19:44:09.068Z,13.22
2023-08-29T19:47:14.547Z,12.82
2023-08-29T19:50:21.047Z,14.00
2023-08-29T19:53:26.873Z,13.18
2023-08-29T19:56:32.943Z,13.05
2023-08-29T19:59:39.320Z,12.33
2023-08-29T20:02:47.580Z,13.83
2023-08-29T20:05:54.095Z,14.00
2023-08-29T20:09:01.294Z,12.98
2023-08-29T20:12:07.712Z,12.55
2023-08-29T20:15:12.593Z,13.68
2023-08-29T20:18:18.960Z,13.22
2023-08-29T20:21:25.920Z,13.15
2023-08-29T20:24:34.559Z,13.50
2023-08-29T20:27:39.597Z,13.40
2023-08-29T20:30:51.744Z,13.58
2023-08-29T20:33:59.728Z,13.70
2023-08-29T20:37:05.252Z,13.05
2023-08-29T20:40:12.544Z,13.32
2023-08-29T20:43:17.499Z,13.10
2023-08-29T20:46:22.741Z,12.88
2023-08-29T20:49:32.076Z,12.78
2023-08-29T20:52:38.371Z,12.80
2023-08-29T20:55:44.182Z,12.70
2023-08-29T20:58:50.785Z,12.73
2023-08-29T21:01:56.924Z,12.90
2023-08-29T21:05:05.421Z,12.35
2023-08-29T21:08:12.251Z,11.65
2023-08-29T21:11:18.783Z,12.20
2023-08-29T21:14:24.967Z,10.95
2023-08-29T21:17:32.361Z,10.05
2023-08-29T21:20:40.314Z,11.50
2023-08-29T21:23:47.965Z,11.18
2023-08-29T21:26:56.675Z,11.68
2023-08-29T21:30:02.973Z,11.00
2023-08-29T21:33:08.952Z,10.08
2023-08-29T21:36:15.272Z,10.48
2023-08-29T21:39:23.334Z,10.90
2023-08-29T21:42:29.130Z,11.28
2023-08-29T21:45:35.397Z,10.75
2023-08-29T21:48:40.957Z,11.00
2023-08-29T21:51:47.535Z,11.15
2023-08-29T21:54:54.919Z,10.90
2023-08-29T21:58:01.072Z,11.20
2023-08-29T22:01:09.092Z,10.93
2023-08-29T22:04:17.006Z,11.18
2023-08-29T22:07:25.063Z,10.40
2023-08-29T22:10:30.123Z,10.03
2023-08-29T22:13:35.958Z,9.80
2023-08-29T22:16:41.482Z,9.73
2023-08-29T22:19:48.027Z,10.80
2023-08-29T22:22:55.025Z,11.00
2023-08-29T22:26:02.807Z,10.05
2023-08-29T22:29:08.461Z,9.85
2023-08-29T22:32:14.311Z,10.85
2023-08-29T22:35:21.400Z,9.83
2023-08-29T22:38:28.214Z,10.48
2023-08-29T22:41:35.658Z,10.00
2023-08-29T22:44:41.168Z,9.68
2023-08-29T22:47:49.212Z,9.75
2023-08-29T22:50:56.413Z,9.88
2023-08-29T22:54:01.548Z,9.85
2023-08-29T22:57:07.816Z,10.23
2023-08-29T23:00:14.817Z,9.58
2023-08-29T23:03:21.085Z,10.28
2023-08-29T23:06:28.630Z,10.80
2023-08-29T23:09:35.095Z,9.73
2023-08-29T23:12:40.788Z,11.05
2023-08-29T23:15:45.639Z,10.32
2023-08-29T23:18:51.977Z,10.23
2023-08-29T23:21:57.241Z,9.65
2023-08-29T23:25:03.181Z,10.15
2023-08-29T23:28:08.182Z,10.35
2023-08-29T23:31:15.124Z,9.68
2023-08-29T23:34:21.695Z,10.05
2023-08-29T23:37:28.768Z,9.65
2023-08-29T23:40:34.738Z,9.50
2023-08-29T23:43:40.040Z,9.50
2023-08-29T23:46:45.116Z,9.80
2023-08-29T23:49:52.617Z,9.43
2023-08-29T23:52:58.779Z,9.90
2023-08-29T23:56:05.089Z,9.73
2023-08-29T23:59:12.073Z,10.20
